Terminal Aerodrome Forecast
Issued by NWS Sioux Falls, SD

Home | Current Version | Previous Version | Text Only | Print | Product List | Glossary On
Versions: 1 2 3 4 5 6 7 8 9 10 11 12 13 14 15 16
000
FTUS43 KFSD 090533
TAFHON
TAF
KHON 090533Z 0906/1006 33014KT P6SM BKN250
     FM090900 34012KT P6SM BKN030
     FM091300 33008KT P6SM SCT250
     FM091800 27007KT P6SM FEW250
     FM092100 23006KT P6SM FEW250
     FM100400 26008KT P6SM FEW250=

USA.gov is the U.S. government's official web portal to all federal, state and local government web resources and services.